Time;durP1;ratioP1;P1;durP2;ratioP2;P2;SDS_P1;SDS_P2;PMS_P1;PMS_P2;Temp;Humidity;BMP_temperature;BMP_pressure;BME280_temperature;BME280_humidity;BME280_pressure;Samples;Min_cycle;Max_cycle;Signal;HPM_P1;HPM_P2
2022/01/14 00:01:13;;;;;;;;;;;;;;;6.85;74.39;103476.31;5138850;27;40882;-82
2022/01/14 00:03:38;;;;;;;;;;;;;;;6.84;74.34;103479.72;5139104;27;26998;-82
2022/01/14 00:06:04;;;;;;;;;;;;;;;6.82;74.80;103486.50;5138246;27;33190;-82
2022/01/14 00:08:29;;;;;;;;;;;;;;;6.82;74.52;103483.09;5138910;27;26856;-82
2022/01/14 00:10:56;;;;;;;;;;;;;;;6.84;75.08;103484.84;5139629;27;26966;-82
2022/01/14 00:13:46;;;;;;;;;;;;;;;6.85;74.97;103481.47;5139819;27;26851;-82
2022/01/14 00:16:11;;;;;;;;;;;;;;;6.84;74.22;103484.84;5140279;27;26968;-81
2022/01/14 00:18:37;;;;;;;;;;;;;;;6.86;74.37;103488.34;5138142;27;50013;-82
2022/01/14 00:21:02;;;;;;;;;;;;;;;6.89;74.42;103488.44;5139816;27;26466;-81
2022/01/14 00:23:32;;;;;;;;;;;;;;;6.91;74.08;103481.66;5139586;27;26915;-81
2022/01/14 00:31:49;;;;;;;;;;;;;;;6.90;74.22;103474.78;5142380;27;26393;-82
2022/01/14 00:34:15;;;;;;;;;;;;;;;6.86;74.37;103467.81;5142901;27;26863;-83
2022/01/14 00:36:41;;;;;;;;;;;;;;;6.86;74.81;103470.38;5142447;27;26829;-82
2022/01/14 00:39:07;;;;;;;;;;;;;;;6.85;74.30;103458.34;5142289;27;27056;-83
2022/01/14 00:41:33;;;;;;;;;;;;;;;6.82;74.69;103451.41;5140587;27;26913;-83
2022/01/14 00:44:01;;;;;;;;;;;;;;;6.85;74.25;103448.06;5140546;27;26883;-82
2022/01/14 00:46:27;;;;;;;;;;;;;;;6.86;74.15;103447.25;5142494;27;26910;-80
2022/01/14 00:48:52;;;;;;;;;;;;;;;6.87;74.05;103443.84;5141058;27;28091;-83
2022/01/14 00:51:17;;;;;;;;;;;;;;;6.87;74.25;103446.41;5121167;27;55939;-83
2022/01/14 00:53:42;;;;;;;;;;;;;;;6.86;74.12;103436.97;5139266;27;54435;-83
2022/01/14 00:56:21;;;;;;;;;;;;;;;6.80;74.75;103443.66;5121661;27;26976;-82
2022/01/14 01:01:30;;;;;;;;;;;;;;;6.74;74.15;103451.16;5141625;27;26902;-82
2022/01/14 01:03:56;;;;;;;;;;;;;;;6.75;74.70;103457.16;5140605;27;27013;-82
2022/01/14 01:06:21;;;;;;;;;;;;;;;6.77;74.42;103452.94;5141434;27;26978;-82
2022/01/14 01:08:49;;;;;;;;;;;;;;;6.78;74.82;103449.56;5141510;27;26932;-82
2022/01/14 01:11:14;;;;;;;;;;;;;;;6.81;74.45;103454.81;5142118;27;26848;-82
2022/01/14 01:13:49;;;;;;;;;;;;;;;6.83;74.58;103460.84;5122867;27;28233;-82
2022/01/14 01:16:14;;;;;;;;;;;;;;;6.82;74.29;103457.41;5151681;27;26872;-83
2022/01/14 01:18:39;;;;;;;;;;;;;;;6.80;74.43;103448.78;5125494;27;28020;-83
2022/01/14 01:21:05;;;;;;;;;;;;;;;6.82;74.32;103442.00;5141747;27;48225;-83
2022/01/14 01:23:30;;;;;;;;;;;;;;;6.85;73.89;103440.38;5141911;27;26894;-83
2022/01/14 01:26:03;;;;;;;;;;;;;;;6.82;74.82;103432.56;5141634;27;31163;-82
2022/01/14 01:28:29;;;;;;;;;;;;;;;6.82;74.93;103431.72;5140970;27;27381;-82
2022/01/14 01:31:35;;;;;;;;;;;;;;;6.85;74.90;103436.09;5141559;27;26812;-82
2022/01/14 01:33:42;;;;;;;;;;;;;;;6.90;74.50;103423.41;5138928;27;27111;-82
2022/01/14 01:36:07;;;;;;;;;;;;;;;6.90;74.28;103423.41;5140826;27;54729;-83
2022/01/14 01:38:32;;;;;;;;;;;;;;;6.92;74.11;103420.06;5140229;27;57064;-83
2022/01/14 01:40:58;;;;;;;;;;;;;;;6.88;73.87;103407.06;5140606;27;30249;-83
2022/01/14 01:43:25;;;;;;;;;;;;;;;6.91;74.55;103409.72;5141172;27;34358;-83
2022/01/14 01:45:51;;;;;;;;;;;;;;;6.93;74.90;103408.09;5141554;27;26799;-81
2022/01/14 01:48:16;;;;;;;;;;;;;;;6.95;74.10;103416.72;5140775;27;32412;-82
2022/01/14 01:50:41;;;;;;;;;;;;;;;6.98;74.59;103411.66;5140724;27;26979;-82
2022/01/14 01:53:07;;;;;;;;;;;;;;;6.99;74.49;103419.44;5140922;27;26819;-82
2022/01/14 01:55:32;;;;;;;;;;;;;;;6.99;74.28;103418.56;5141132;27;26816;-80
2022/01/14 01:57:57;;;;;;;;;;;;;;;7.00;74.44;103425.44;5122764;27;27588;-80
2022/01/14 02:00:24;;;;;;;;;;;;;;;7.02;74.05;103428.91;5143170;27;26364;-81
2022/01/14 02:02:50;;;;;;;;;;;;;;;7.02;74.50;103434.06;5140692;27;26752;-81
2022/01/14 02:05:16;;;;;;;;;;;;;;;7.03;74.43;103431.56;5140028;27;26839;-81
2022/01/14 02:07:41;;;;;;;;;;;;;;;7.05;74.09;103429.03;5141123;27;26815;-81
2022/01/14 02:10:07;;;;;;;;;;;;;;;7.05;74.40;103423.91;5141993;27;27245;-80
2022/01/14 02:12:39;;;;;;;;;;;;;;;7.05;74.33;103418.75;5141508;27;27707;-80
2022/01/14 02:15:24;;;;;;;;;;;;;;;7.06;74.51;103415.34;5140578;27;26818;-83
2022/01/14 02:18:25;;;;;;;;;;;;;;;7.08;74.61;103408.56;5139897;27;27024;-83
2022/01/14 02:23:29;;;;;;;;;;;;;;;7.13;73.63;103409.56;5096691;27;27103;-83
2022/01/14 02:25:54;;;;;;;;;;;;;;;7.07;73.57;103404.25;5144827;27;26807;-83
2022/01/14 02:28:20;;;;;;;;;;;;;;;7.03;74.22;103395.56;5143233;27;38361;-83
2022/01/14 02:30:47;;;;;;;;;;;;;;;7.01;73.79;103398.94;5141372;27;26909;-82
2022/01/14 02:33:13;;;;;;;;;;;;;;;6.99;73.89;103392.84;5152711;27;27093;-83
2022/01/14 02:35:39;;;;;;;;;;;;;;;7.01;74.27;103380.94;5143545;27;26812;-82
2022/01/14 02:38:05;;;;;;;;;;;;;;;7.03;74.28;103387.00;5144265;27;26965;-82
2022/01/14 02:40:30;;;;;;;;;;;;;;;7.01;74.01;103388.66;5123271;27;26771;-82
2022/01/14 02:42:59;;;;;;;;;;;;;;;7.01;74.38;103378.38;5141103;27;26720;-82
2022/01/14 02:45:28;;;;;;;;;;;;;;;7.03;74.21;103374.16;5140951;27;26965;-82
2022/01/14 02:47:53;;;;;;;;;;;;;;;7.08;74.59;103367.47;5142241;27;27475;-82
2022/01/14 02:50:21;;;;;;;;;;;;;;;7.11;73.80;103362.41;5141539;27;38550;-81
2022/01/14 02:55:20;;;;;;;;;;;;;;;7.10;74.52;103371.81;5138718;27;26926;-82
2022/01/14 02:57:48;;;;;;;;;;;;;;;7.08;73.99;103377.75;5143080;27;26862;-82
2022/01/14 03:00:14;;;;;;;;;;;;;;;7.05;74.45;103367.38;5142287;27;26664;-82
2022/01/14 03:02:41;;;;;;;;;;;;;;;7.05;74.28;103367.38;5141846;27;27113;-82
2022/01/14 03:05:07;;;;;;;;;;;;;;;7.05;74.56;103367.38;5141592;27;26973;-81
2022/01/14 03:07:32;;;;;;;;;;;;;;;7.03;74.27;103363.88;5140427;27;26871;-80
2022/01/14 03:09:57;;;;;;;;;;;;;;;7.02;74.44;103363.00;5140634;27;27040;-81
2022/01/14 03:12:23;;;;;;;;;;;;;;;7.03;74.23;103364.75;5140262;27;29188;-81
2022/01/14 03:14:48;;;;;;;;;;;;;;;7.04;74.40;103365.63;5140592;27;26882;-81
2022/01/14 03:17:13;;;;;;;;;;;;;;;7.04;74.30;103360.47;5139132;27;27031;-80
2022/01/14 03:19:38;;;;;;;;;;;;;;;7.07;74.05;103370.84;5143942;27;54012;-82
2022/01/14 03:22:19;;;;;;;;;;;;;;;7.06;74.37;103363.97;5144179;27;36115;-82
2022/01/14 03:27:09;;;;;;;;;;;;;;;7.09;74.35;103369.19;5138869;27;26931;-82
2022/01/14 03:29:34;;;;;;;;;;;;;;;7.10;74.17;103365.78;5141735;27;26819;-82
2022/01/14 03:32:00;;;;;;;;;;;;;;;7.13;73.96;103365.88;5143314;27;27127;-82
2022/01/14 03:34:25;;;;;;;;;;;;;;;7.13;74.61;103371.03;5123408;27;26996;-81
2022/01/14 03:36:50;;;;;;;;;;;;;;;7.12;74.76;103364.16;5141393;27;26870;-81
2022/01/14 03:39:19;;;;;;;;;;;;;;;7.10;74.20;103356.38;5138529;27;55335;-81
2022/01/14 03:41:44;;;;;;;;;;;;;;;7.12;74.49;103353.88;5139116;27;27856;-81
2022/01/14 03:44:10;;;;;;;;;;;;;;;7.16;74.42;103342.88;5138926;27;26909;-81
2022/01/14 03:46:35;;;;;;;;;;;;;;;7.16;74.44;103340.31;5138816;27;47176;-81
2022/01/14 03:49:00;;;;;;;;;;;;;;;7.18;73.90;103338.63;5146751;27;26867;-81
2022/01/14 03:51:27;;;;;;;;;;;;;;;7.15;74.38;103333.41;5138514;27;57488;-80
2022/01/14 03:53:52;;;;;;;;;;;;;;;7.13;73.94;103335.03;5139744;27;26893;-80
2022/01/14 03:56:18;;;;;;;;;;;;;;;7.11;74.02;103341.84;5138347;27;57503;-80
2022/01/14 03:58:43;;;;;;;;;;;;;;;7.10;74.74;103345.25;5138678;27;26866;-80
2022/01/14 04:01:09;;;;;;;;;;;;;;;7.12;74.03;103348.75;5139720;27;35215;-81
2022/01/14 04:03:34;;;;;;;;;;;;;;;7.10;74.04;103345.25;5142216;27;26842;-81
2022/01/14 04:05:59;;;;;;;;;;;;;;;7.10;74.80;103332.38;5143524;27;26733;-81
2022/01/14 04:08:25;;;;;;;;;;;;;;;7.13;74.10;103340.19;5142152;27;54823;-81
2022/01/14 04:10:53;;;;;;;;;;;;;;;7.13;74.11;103340.19;5143138;27;27013;-80
2022/01/14 04:13:23;;;;;;;;;;;;;;;7.13;74.86;103335.03;5143644;27;26966;-80
2022/01/14 04:15:48;;;;;;;;;;;;;;;7.11;74.48;103334.13;5142508;27;27098;-80
2022/01/14 04:18:15;;;;;;;;;;;;;;;7.09;74.22;103338.34;5142773;27;26875;-80
2022/01/14 04:20:41;;;;;;;;;;;;;;;7.06;74.52;103338.25;5143412;27;27230;-81
2022/01/14 04:23:07;;;;;;;;;;;;;;;7.06;74.44;103330.56;5143243;27;27069;-83
2022/01/14 04:25:36;;;;;;;;;;;;;;;7.05;74.32;103336.53;5146338;27;26854;-83
2022/01/14 04:28:02;;;;;;;;;;;;;;;7.07;74.60;103337.44;5144891;27;26946;-81
2022/01/14 04:30:27;;;;;;;;;;;;;;;7.05;74.32;103336.53;5143020;27;26739;-81
2022/01/14 04:32:53;;;;;;;;;;;;;;;7.05;74.39;103328.84;5141477;27;26860;-81
2022/01/14 04:35:18;;;;;;;;;;;;;;;7.04;74.25;103324.50;5141839;27;26901;-82
2022/01/14 04:37:43;;;;;;;;;;;;;;;7.05;73.82;103321.97;5141594;27;54211;-83
2022/01/14 04:40:09;;;;;;;;;;;;;;;7.08;74.38;103321.22;5147675;27;26893;-81
2022/01/14 04:42:35;;;;;;;;;;;;;;;7.08;73.76;103316.06;5144319;27;26981;-81
2022/01/14 04:45:00;;;;;;;;;;;;;;;7.06;73.85;103317.69;5142801;27;27479;-81
2022/01/14 04:47:44;;;;;;;;;;;;;;;7.07;74.46;103324.59;5142476;27;39385;-80
2022/01/14 04:50:14;;;;;;;;;;;;;;;7.11;74.69;103326.44;5142722;27;27152;-82
2022/01/14 04:52:41;;;;;;;;;;;;;;;7.15;74.66;103315.41;5142772;27;26895;-82
2022/01/14 04:55:07;;;;;;;;;;;;;;;7.11;73.67;103311.00;5143096;27;26796;-81
2022/01/14 04:57:32;;;;;;;;;;;;;;;7.07;73.96;103314.31;5142962;27;26826;-81
2022/01/14 04:59:57;;;;;;;;;;;;;;;7.01;73.79;103306.44;5141754;27;27481;-81
2022/01/14 05:02:23;;;;;;;;;;;;;;;6.96;74.50;103310.56;5144253;27;47874;-83
2022/01/14 05:04:48;;;;;;;;;;;;;;;6.89;74.45;103319.78;5142241;27;26802;-80
2022/01/14 05:07:24;;;;;;;;;;;;;;;6.85;73.96;103322.19;5140614;27;54716;-82
2022/01/14 05:09:57;;;;;;;;;;;;;;;6.86;74.58;103314.53;5145279;27;27545;-82
2022/01/14 05:12:23;;;;;;;;;;;;;;;6.88;74.45;103317.16;5146429;27;26891;-80
2022/01/14 05:14:48;;;;;;;;;;;;;;;6.86;74.06;103304.25;5142235;27;27081;-83
2022/01/14 05:17:13;;;;;;;;;;;;;;;6.82;74.64;103293.00;5140683;27;54070;-83
2022/01/14 05:19:39;;;;;;;;;;;;;;;6.82;74.87;103291.28;5140409;27;41868;-83
2022/01/14 05:22:04;;;;;;;;;;;;;;;6.82;74.08;103287.88;5142424;27;27102;-81
2022/01/14 05:24:30;;;;;;;;;;;;;;;6.79;74.16;103292.94;5141853;27;26964;-81
2022/01/14 05:26:55;;;;;;;;;;;;;;;6.77;74.80;103276.63;5139832;27;26908;-81
2022/01/14 05:29:20;;;;;;;;;;;;;;;6.78;74.23;103280.06;5141388;27;40574;-80
2022/01/14 05:31:47;;;;;;;;;;;;;;;6.80;74.93;103279.25;5140751;27;26913;-79
2022/01/14 05:34:12;;;;;;;;;;;;;;;6.82;75.16;103282.75;5140172;27;27086;-81
2022/01/14 05:36:38;;;;;;;;;;;;;;;6.82;74.96;103282.75;5142694;27;26917;-81
2022/01/14 05:39:04;;;;;;;;;;;;;;;6.84;74.04;103271.66;5142122;27;28893;-80
2022/01/14 05:41:30;;;;;;;;;;;;;;;6.85;74.86;103260.56;5141426;27;26851;-79
2022/01/14 05:43:55;;;;;;;;;;;;;;;6.82;74.10;103277.59;5144229;27;27919;-80
2022/01/14 05:46:21;;;;;;;;;;;;;;;6.84;74.91;103279.34;5138610;27;53970;-80
2022/01/14 05:48:47;;;;;;;;;;;;;;;6.84;74.37;103269.06;5140741;27;27121;-80
2022/01/14 05:51:13;;;;;;;;;;;;;;;6.82;74.70;103262.19;5141842;27;26849;-80
2022/01/14 05:53:38;;;;;;;;;;;;;;;6.80;74.80;103253.59;5139870;27;27476;-80
2022/01/14 05:56:04;;;;;;;;;;;;;;;6.82;74.25;103276.75;5139929;27;53393;-80
2022/01/14 05:58:29;;;;;;;;;;;;;;;6.78;75.14;103280.06;5139983;27;27280;-80
2022/01/14 06:00:54;;;;;;;;;;;;;;;6.73;74.55;103269.63;5145307;27;47066;-81
2022/01/14 06:03:19;;;;;;;;;;;;;;;6.74;75.23;103276.53;5145105;27;55987;-81
2022/01/14 06:05:44;;;;;;;;;;;;;;;6.73;74.97;103266.19;5145458;27;43559;-81
2022/01/14 06:08:11;;;;;;;;;;;;;;;6.72;75.42;103265.31;5124416;27;26881;-82
2022/01/14 06:10:36;;;;;;;;;;;;;;;6.70;74.82;103263.53;5140474;27;26967;-80
2022/01/14 06:13:02;;;;;;;;;;;;;;;6.68;75.39;103266.03;5141353;27;27148;-81
2022/01/14 06:15:27;;;;;;;;;;;;;;;6.71;75.01;103253.28;5140972;27;27251;-80
2022/01/14 06:17:52;;;;;;;;;;;;;;;6.69;75.00;103262.66;5139875;27;50693;-80
2022/01/14 06:20:17;;;;;;;;;;;;;;;6.70;74.98;103256.72;5141428;27;26937;-80
2022/01/14 06:22:42;;;;;;;;;;;;;;;6.73;75.29;103263.63;5140278;27;26993;-81
2022/01/14 06:25:08;;;;;;;;;;;;;;;6.75;74.95;103265.41;5141213;27;55376;-80
2022/01/14 06:27:33;;;;;;;;;;;;;;;6.74;74.91;103248.28;5144435;27;26820;-80
2022/01/14 06:30:03;;;;;;;;;;;;;;;6.75;75.09;103265.41;5141604;27;27036;-82
2022/01/14 06:32:28;;;;;;;;;;;;;;;6.76;75.27;103262.03;5142880;27;27496;-81
2022/01/14 06:34:53;;;;;;;;;;;;;;;6.77;75.10;103256.06;5142400;27;26971;-82
2022/01/14 06:37:19;;;;;;;;;;;;;;;6.79;75.25;103262.09;5139402;27;57044;-83
2022/01/14 06:39:44;;;;;;;;;;;;;;;6.79;74.42;103262.09;5140162;27;32479;-82
2022/01/14 06:42:09;;;;;;;;;;;;;;;6.79;75.13;103256.97;5141330;27;26822;-81
2022/01/14 06:44:34;;;;;;;;;;;;;;;6.76;74.34;103246.59;5139215;27;26748;-81
2022/01/14 06:46:59;;;;;;;;;;;;;;;6.78;75.12;103250.09;5139253;27;26982;-82
2022/01/14 06:49:24;;;;;;;;;;;;;;;6.78;75.10;103270.66;5139025;27;50181;-82
2022/01/14 06:51:50;;;;;;;;;;;;;;;6.79;75.20;103272.38;5135082;27;55572;-82
2022/01/14 06:54:15;;;;;;;;;;;;;;;6.82;75.06;103277.59;5141177;27;27135;-82
2022/01/14 06:56:40;;;;;;;;;;;;;;;6.87;74.97;103261.47;5142160;27;47995;-84
2022/01/14 06:59:06;;;;;;;;;;;;;;;6.87;74.45;103270.03;5136249;27;55146;-80
2022/01/14 07:01:31;;;;;;;;;;;;;;;6.87;75.04;103276.88;5130037;27;27307;-81
2022/01/14 07:03:56;;;;;;;;;;;;;;;6.87;74.64;103261.47;5129993;27;27164;-81
2022/01/14 07:06:21;;;;;;;;;;;;;;;6.87;75.19;103253.75;5126598;27;27130;-81
2022/01/14 07:08:46;;;;;;;;;;;;;;;6.88;74.31;103255.50;5119303;27;54538;-81
2022/01/14 07:11:12;;;;;;;;;;;;;;;6.89;74.24;103267.53;5119535;27;27203;-81
2022/01/14 07:13:37;;;;;;;;;;;;;;;6.92;74.49;103270.19;5119268;27;27228;-81
2022/01/14 07:16:04;;;;;;;;;;;;;;;6.91;75.16;103271.00;5093979;27;28852;-81
2022/01/14 07:18:29;;;;;;;;;;;;;;;6.89;74.98;103272.66;5102444;27;27362;-81
2022/01/14 07:20:54;;;;;;;;;;;;;;;6.83;74.38;103278.47;5093201;27;27399;-81
2022/01/14 07:23:22;;;;;;;;;;;;;;;6.79;75.20;103267.25;5085206;27;29273;-81
2022/01/14 07:25:47;;;;;;;;;;;;;;;6.82;74.60;103280.16;5084764;27;26870;-80
2022/01/14 07:28:13;;;;;;;;;;;;;;;6.86;74.77;103290.56;5083068;27;27514;-80
2022/01/14 07:30:38;;;;;;;;;;;;;;;6.91;75.36;103281.28;5089500;27;27473;-81
2022/01/14 07:33:03;;;;;;;;;;;;;;;6.96;75.04;103300.28;5091003;27;27065;-81
2022/01/14 07:35:29;;;;;;;;;;;;;;;7.00;75.47;103299.53;5093417;27;26976;-81
2022/01/14 07:37:55;;;;;;;;;;;;;;;7.02;74.55;103300.44;5101627;27;27373;-81
2022/01/14 07:40:20;;;;;;;;;;;;;;;7.05;75.11;103305.69;5113738;27;26980;-81
2022/01/14 07:42:46;;;;;;;;;;;;;;;7.05;74.40;103306.53;5114410;27;27094;-81
2022/01/14 07:45:11;;;;;;;;;;;;;;;7.09;75.07;103312.66;5113742;27;27307;-82
2022/01/14 07:47:37;;;;;;;;;;;;;;;7.14;74.67;103316.25;5116862;27;26881;-82
2022/01/14 07:50:02;;;;;;;;;;;;;;;7.20;74.87;103318.97;5118201;27;27534;-82
2022/01/14 07:52:28;;;;;;;;;;;;;;;7.23;74.78;103303.66;5116592;27;27322;-82
2022/01/14 07:54:53;;;;;;;;;;;;;;;7.21;74.77;103303.63;5110479;27;27260;-82
2022/01/14 07:57:19;;;;;;;;;;;;;;;7.28;74.24;103304.66;5089939;27;27219;-82
2022/01/14 07:59:44;;;;;;;;;;;;;;;7.30;74.65;103308.16;5102880;27;27840;-82
2022/01/14 08:02:10;;;;;;;;;;;;;;;7.34;74.81;103325.41;5111095;27;27280;-82
2022/01/14 08:04:37;;;;;;;;;;;;;;;7.33;74.62;103318.50;5107847;27;27183;-82
2022/01/14 08:07:08;;;;;;;;;;;;;;;7.35;74.25;103318.56;5095352;27;27349;-82
2022/01/14 08:09:34;;;;;;;;;;;;;;;7.36;74.15;103318.59;5113855;27;27437;-82
2022/01/14 08:12:00;;;;;;;;;;;;;;;7.39;74.13;103318.69;5110212;27;27457;-80
2022/01/14 08:14:25;;;;;;;;;;;;;;;7.41;74.70;103327.31;5107305;27;27346;-81
2022/01/14 08:16:50;;;;;;;;;;;;;;;7.46;74.29;103324.91;5109219;27;27218;-81
2022/01/14 08:19:19;;;;;;;;;;;;;;;7.51;74.50;103321.59;5101419;27;54380;-80
2022/01/14 08:21:44;;;;;;;;;;;;;;;7.45;74.47;103313.72;5079163;27;27204;-81
2022/01/14 08:24:17;;;;;;;;;;;;;;;7.62;74.21;103338.22;5086059;27;47989;-82
2022/01/14 08:26:42;;;;;;;;;;;;;;;7.65;73.99;103338.28;5020518;28;27247;-82
2022/01/14 08:29:07;;;;;;;;;;;;;;;7.67;74.34;103336.63;5023141;28;56725;-80
2022/01/14 08:31:32;;;;;;;;;;;;;;;7.67;74.20;103331.50;5044554;28;40150;-79
2022/01/14 08:33:58;;;;;;;;;;;;;;;7.71;74.42;103332.44;5055414;28;41543;-81
2022/01/14 08:36:24;;;;;;;;;;;;;;;7.73;74.67;103331.66;5063334;28;26905;-81
2022/01/14 08:38:50;;;;;;;;;;;;;;;7.77;74.23;103333.47;5071944;28;27442;-80
2022/01/14 08:41:15;;;;;;;;;;;;;;;7.81;74.16;103339.59;5069993;28;27113;-80
2022/01/14 08:43:40;;;;;;;;;;;;;;;7.87;74.36;103338.88;5067887;28;27309;-80
2022/01/14 08:46:05;;;;;;;;;;;;;;;7.90;74.66;103349.25;5064482;28;27205;-80
2022/01/14 08:48:31;;;;;;;;;;;;;;;7.94;74.39;103345.94;5060387;27;56799;-80
2022/01/14 08:50:56;;;;;;;;;;;;;;;7.96;74.38;103339.13;5056605;28;47965;-80
2022/01/14 08:53:21;;;;;;;;;;;;;;;7.99;73.83;103345.22;5059613;28;27270;-81
2022/01/14 08:55:46;;;;;;;;;;;;;;;8.05;73.99;103339.38;5065136;28;52474;-80
2022/01/14 08:58:12;;;;;;;;;;;;;;;8.10;73.86;103337.75;5061394;28;27190;-80
2022/01/14 09:00:37;;;;;;;;;;;;;;;8.15;74.19;103333.63;5068160;28;26946;-80
2022/01/14 09:03:03;;;;;;;;;;;;;;;8.18;74.18;103325.97;5068695;27;27800;-81
2022/01/14 09:05:29;;;;;;;;;;;;;;;8.21;73.80;103331.22;5102017;27;26899;-82
2022/01/14 09:07:54;;;;;;;;;;;;;;;8.24;73.67;103323.56;5097368;27;27389;-81
2022/01/14 09:10:20;;;;;;;;;;;;;;;8.26;74.17;103329.63;5100093;27;27016;-82
2022/01/14 09:12:45;;;;;;;;;;;;;;;8.29;73.86;103334.00;5096494;27;28208;-82
2022/01/14 09:15:12;;;;;;;;;;;;;;;8.30;74.16;103331.47;5094324;27;27206;-83
2022/01/14 09:17:37;;;;;;;;;;;;;;;8.34;74.08;103338.44;5097967;27;27365;-83
2022/01/14 09:20:03;;;;;;;;;;;;;;;8.33;73.92;103331.53;5096061;27;27291;-82
2022/01/14 09:22:30;;;;;;;;;;;;;;;8.35;73.59;103336.75;5095170;27;27949;-81
2022/01/14 09:24:58;;;;;;;;;;;;;;;8.34;73.84;103340.13;5086994;27;27344;-81
2022/01/14 09:27:23;;;;;;;;;;;;;;;8.21;73.93;103326.91;5047988;27;27409;-82
2022/01/14 09:29:48;;;;;;;;;;;;;;;8.35;74.03;103353.06;5046276;27;27417;-82
2022/01/14 09:32:13;;;;;;;;;;;;;;;8.38;74.06;103347.97;5018620;27;28092;-81
2022/01/14 09:34:38;;;;;;;;;;;;;;;8.40;73.87;103343.72;5057474;27;41804;-82
2022/01/14 09:37:05;;;;;;;;;;;;;;;8.46;74.21;103346.47;5064180;27;47540;-81
2022/01/14 09:39:32;;;;;;;;;;;;;;;8.47;73.95;103350.78;5058693;27;27358;-81
2022/01/14 09:41:58;;;;;;;;;;;;;;;8.48;74.01;103347.38;5074110;27;27466;-81
2022/01/14 09:44:23;;;;;;;;;;;;;;;8.54;73.73;103357.84;5064256;27;27335;-82
2022/01/14 09:46:48;;;;;;;;;;;;;;;8.56;73.62;103361.31;5066631;27;32312;-81
2022/01/14 09:49:14;;;;;;;;;;;;;;;8.59;73.80;103360.50;5076406;27;27178;-81
2022/01/14 09:51:39;;;;;;;;;;;;;;;8.57;73.96;103352.75;5090460;27;27287;-82
2022/01/14 09:54:06;;;;;;;;;;;;;;;8.64;74.42;103358.91;5089844;27;27475;-82
2022/01/14 09:56:32;;;;;;;;;;;;;;;8.67;73.83;103354.72;5095896;27;27221;-82
2022/01/14 09:58:57;;;;;;;;;;;;;;;8.68;73.07;103348.72;5103743;27;27103;-82
2022/01/14 10:01:23;;;;;;;;;;;;;;;8.71;73.88;103343.66;5110707;27;28601;-81
2022/01/14 10:03:53;;;;;;;;;;;;;;;8.69;74.01;103337.59;5113402;27;27339;-81
2022/01/14 10:06:37;;;;;;;;;;;;;;;8.68;73.63;103335.84;5113933;27;27772;-82
2022/01/14 10:09:08;;;;;;;;;;;;;;;8.70;73.72;103336.75;5116058;27;27217;-81
2022/01/14 10:11:36;;;;;;;;;;;;;;;8.74;74.12;103341.13;5117262;27;27359;-82
2022/01/14 10:14:05;;;;;;;;;;;;;;;8.79;73.07;103348.09;5116449;27;27395;-82
2022/01/14 10:16:30;;;;;;;;;;;;;;;8.85;73.85;103353.41;5116140;27;28040;-82
2022/01/14 10:18:56;;;;;;;;;;;;;;;8.88;73.47;103353.47;5118704;27;26923;-82
2022/01/14 10:21:29;;;;;;;;;;;;;;;8.91;73.61;103348.38;5119665;27;35380;-82
2022/01/14 10:23:55;;;;;;;;;;;;;;;8.95;73.30;103348.50;5119879;27;27144;-82
2022/01/14 10:26:21;;;;;;;;;;;;;;;9.00;74.04;103348.56;5118903;27;27356;-82
2022/01/14 10:29:00;;;;;;;;;;;;;;;9.02;73.68;103352.06;5119374;27;27041;-78
2022/01/14 10:31:37;;;;;;;;;;;;;;;9.04;73.97;103350.38;5115703;27;27235;-79
2022/01/14 10:34:06;;;;;;;;;;;;;;;9.11;73.66;103347.13;5113857;27;27226;-79
2022/01/14 10:36:31;;;;;;;;;;;;;;;9.13;74.19;103355.75;5100281;27;27591;-80
2022/01/14 10:38:57;;;;;;;;;;;;;;;9.17;73.52;103352.41;5110586;27;27395;-79
2022/01/14 10:41:27;;;;;;;;;;;;;;;9.20;73.75;103347.31;5089267;27;41148;-79
2022/01/14 10:43:54;;;;;;;;;;;;;;;9.22;73.48;103346.50;5108575;27;27261;-79
2022/01/14 10:46:28;;;;;;;;;;;;;;;9.27;74.16;103345.72;5087713;27;27258;-80
2022/01/14 10:48:54;;;;;;;;;;;;;;;9.29;72.92;103350.09;5065114;27;27591;-80
2022/01/14 10:51:20;;;;;;;;;;;;;;;9.24;74.18;103325.91;5079348;27;28038;-81
2022/01/14 10:53:53;;;;;;;;;;;;;;;9.30;73.30;103333.78;5050624;27;27287;-79
2022/01/14 10:56:19;;;;;;;;;;;;;;;9.28;73.11;103340.63;5088563;27;27181;-79
2022/01/14 10:58:45;;;;;;;;;;;;;;;9.28;73.15;103339.75;5095916;27;27205;-81
2022/01/14 11:01:16;;;;;;;;;;;;;;;9.27;73.49;103338.88;5095615;27;27358;-79
2022/01/14 11:03:52;;;;;;;;;;;;;;;9.32;73.21;103351.88;5097538;27;27241;-80
2022/01/14 11:06:30;;;;;;;;;;;;;;;9.36;73.63;103349.41;5076584;27;28565;-79
2022/01/14 11:08:56;;;;;;;;;;;;;;;9.37;73.55;103346.00;5091875;27;27311;-79
2022/01/14 11:11:22;;;;;;;;;;;;;;;9.40;72.71;103345.16;5071265;27;28234;-79
2022/01/14 11:13:47;;;;;;;;;;;;;;;9.44;72.95;103342.69;5090249;27;27486;-79
2022/01/14 11:16:12;;;;;;;;;;;;;;;9.48;72.83;103334.19;5096721;27;29043;-81
2022/01/14 11:18:38;;;;;;;;;;;;;;;9.53;73.33;103348.03;5098925;27;27290;-79
2022/01/14 11:23:47;;;;;;;;;;;;;;;9.57;72.42;103329.19;5114337;27;27177;-78
2022/01/14 11:26:16;;;;;;;;;;;;;;;9.59;72.82;103327.53;5119107;27;55922;-80
2022/01/14 11:28:42;;;;;;;;;;;;;;;9.63;72.84;103319.00;5124315;27;27333;-79
2022/01/14 11:31:27;;;;;;;;;;;;;;;9.65;72.96;103326.75;5121021;27;27171;-79
2022/01/14 11:33:53;;;;;;;;;;;;;;;9.61;72.33;103336.16;5121586;27;27247;-81
2022/01/14 11:36:18;;;;;;;;;;;;;;;9.58;72.79;103325.78;5116039;27;27928;-81
2022/01/14 11:38:45;;;;;;;;;;;;;;;9.61;72.82;103325.81;5114108;27;27311;-80
2022/01/14 11:41:13;;;;;;;;;;;;;;;9.66;72.99;103324.22;5114772;27;27476;-81
2022/01/14 11:43:45;;;;;;;;;;;;;;;9.72;72.81;103323.44;5114432;27;27039;-82
2022/01/14 11:46:16;;;;;;;;;;;;;;;9.78;73.54;103327.88;5105704;27;28113;-81
2022/01/14 11:48:46;;;;;;;;;;;;;;;9.82;72.94;103327.09;5081236;27;27062;-81
2022/01/14 11:51:15;;;;;;;;;;;;;;;9.87;72.97;103317.69;5080606;27;27306;-82
2022/01/14 11:53:43;;;;;;;;;;;;;;;9.91;72.79;103316.91;5081351;27;27079;-82
2022/01/14 11:56:27;;;;;;;;;;;;;;;9.93;72.41;103310.09;5065655;27;27833;-82
2022/01/14 11:58:52;;;;;;;;;;;;;;;9.91;71.71;103304.88;5088634;27;27191;-82
2022/01/14 12:01:35;;;;;;;;;;;;;;;9.89;72.36;103300.53;5079566;27;27337;-82
2022/01/14 12:04:01;;;;;;;;;;;;;;;9.83;72.39;103305.56;5075647;27;27379;-80
2022/01/14 12:06:46;;;;;;;;;;;;;;;9.82;72.34;103306.44;5076950;27;28054;-82
2022/01/14 12:09:11;;;;;;;;;;;;;;;9.82;73.15;103320.22;5071992;27;27002;-83
2022/01/14 12:11:38;;;;;;;;;;;;;;;9.84;73.36;103322.81;5085077;27;27922;-83
2022/01/14 12:14:05;;;;;;;;;;;;;;;9.74;73.48;103289.94;5095733;27;27241;-83
2022/01/14 12:18:57;;;;;;;;;;;;;;;9.90;72.27;103315.16;5097288;27;27291;-83
2022/01/14 12:21:37;;;;;;;;;;;;;;;9.97;72.40;103314.47;5099107;27;41340;-83
2022/01/14 12:24:22;;;;;;;;;;;;;;;10.00;72.43;103324.84;5100118;27;27319;-82
2022/01/14 12:27:08;;;;;;;;;;;;;;;10.06;72.53;103324.94;5102198;27;28974;-82
2022/01/14 12:29:35;;;;;;;;;;;;;;;10.13;72.93;103326.78;5106910;27;27159;-82
2022/01/14 12:32:04;;;;;;;;;;;;;;;10.17;71.64;103320.84;5109164;27;27214;-82
2022/01/14 12:34:31;;;;;;;;;;;;;;;10.16;72.07;103313.94;5111331;27;27403;-82
2022/01/14 12:36:56;;;;;;;;;;;;;;;10.13;72.58;103313.88;5118994;27;27288;-83
2022/01/14 12:39:22;;;;;;;;;;;;;;;10.14;72.09;103318.19;5103291;27;27238;-83
2022/01/14 12:41:50;;;;;;;;;;;;;;;10.16;72.13;103322.56;5122688;27;27205;-83
2022/01/14 12:44:16;;;;;;;;;;;;;;;10.16;72.00;103316.53;5125951;27;27097;-83
2022/01/14 12:46:52;;;;;;;;;;;;;;;10.16;72.18;103321.69;5126499;27;27074;-83
2022/01/14 12:49:17;;;;;;;;;;;;;;;10.16;71.75;103324.28;5126789;27;27177;-83
2022/01/14 12:51:43;;;;;;;;;;;;;;;10.11;72.06;103323.31;5124333;27;53428;-82
2022/01/14 12:54:09;;;;;;;;;;;;;;;10.11;71.91;103325.91;5119292;27;27141;-83
2022/01/14 12:56:35;;;;;;;;;;;;;;;10.05;71.34;103328.34;5117050;27;27304;-83
2022/01/14 12:59:01;;;;;;;;;;;;;;;10.02;71.04;103326.59;5117269;27;27258;-82
2022/01/14 13:01:27;;;;;;;;;;;;;;;10.00;71.91;103330.00;5113662;27;28016;-83
2022/01/14 13:03:56;;;;;;;;;;;;;;;9.99;72.13;103323.97;5117422;27;27077;-83
2022/01/14 13:06:23;;;;;;;;;;;;;;;10.01;71.62;103316.25;5112379;27;27731;-83